Latest Coastal Weather Observations for Cape Bruny AWS

IDT60701

Issued at 12:25 am EST Tuesday 29 July 2014 (issued every 10 minutes, with the page automatically refreshed every 10 minutes)

About coastal observations | Map of coastal stations | Coastal observations for TAS | Marine services | Other Formats
Station Details ID: 094198 Name: CAPE BRUNY (CAPE BRUNY) Lat: -43.49 Lon: 147.14 Height: 59.7 m
Data from the previous 72 hours. | See also: Recent months at Cape Bruny AWS
Date/Time
EST
Temp

°C
Wind Pressure Rain
since 9am
mm
Weather Cloud Vis
km
Sea
Height
m
Swell
Dir
 
Speed
knots
Gust
knots
hPa Trend Height
m
Period
s
Dir
29/12:00am 11.6 NNW 15 25 997.0 - 3.4 - - - - - - -
 
Date/Time
EST
Temp

°C
Wind Pressure Rain
since 9am
mm
Weather Cloud Vis
km
Sea
Height
m
Swell
Dir
 
Speed
knots
Gust
knots
hPa Trend Height
m
Period
s
Dir
28/11:31pm 11.7 NW 23 33 996.8 - 3.4 - - - - - - -
28/11:30pm 11.8 NW 24 33 996.8 - 3.4 - - - - - - -
28/11:05pm 11.4 NW 21 31 996.9 - 3.4 - - - - - - -
28/11:00pm 11.4 NW 21 30 997.1 - 3.4 - - - - - - -
28/10:30pm 11.0 NW 17 26 997.7 - 3.4 - - - - - - -
28/10:12pm 10.5 NW 16 30 997.8 - 3.4 - - - - - - -
28/10:08pm 10.2 NW 15 23 998.1 - 3.4 - - - - - - -
28/10:00pm 9.3 N 9 13 998.5 - 3.4 - - - - - - -
28/09:30pm 9.3 N 11 17 998.6 - 3.4 - - - - - - -
28/09:00pm 8.9 N 12 18 998.8 - 3.4 Recent precip. - - - - - -
28/08:30pm 8.8 N 9 13 999.4 - 3.4 - - - - - - -
28/08:00pm 8.7 N 8 13 999.9 - 3.2 - - - - - - -
28/07:30pm 8.2 NW 10 12 999.9 - 3.2 - - - - - - -
28/07:00pm 8.3 N 8 10 1000.1 - 3.2 - - - - - - -
28/06:51pm 8.8 NW 9 11 1000.7 - 3.0 - - - - - - -
28/06:30pm 9.4 W 21 27 1001.4 - 1.2 - - - - - - -
28/06:03pm 10.7 WNW 16 26 1000.7 - 0.2 - - - - - - -
28/06:00pm 11.0 NW 13 22 1000.8 - 0.2 - - - - - - -
28/05:30pm 11.4 NW 12 16 1000.3 - 0.2 - - - - - - -
28/05:09pm 11.6 WNW 17 32 1000.1 - 0.2 - - - - - - -
28/05:00pm 12.0 NW 20 27 1000.2 - 0.2 - - - - - - -
28/04:30pm 12.6 NW 23 31 1000.3 - 0.2 - - - - - - -
28/04:00pm 13.0 NW 18 28 1000.7 - 0.2 - - - - - - -
28/03:42pm 13.0 WNW 21 31 1000.6 - 0.2 - - - - - - -
28/03:30pm 13.0 WNW 22 29 1000.4 - 0.2 - - - - - - -
28/03:02pm 13.8 NW 25 35 1000.2 - 0.2 - - - - - - -
28/03:00pm 13.8 NW 26 35 1000.3 - 0.2 Recent precip. - - - - - -
28/02:36pm 14.3 NW 27 37 1000.3 - 0.2 - - - - - - -
28/02:30pm 14.1 NW 29 37 1000.2 - 0.2 - - - - - - -
28/02:10pm 13.8 NW 24 34 1000.4 - 0.0 - - - - - - -
28/02:00pm 13.9 NW 27 34 1000.6 - 0.0 - - - - - - -
28/01:30pm 14.3 NW 23 36 1001.0 - 0.0 - - - - - - -
28/01:28pm 14.6 NW 22 32 1001.1 - 0.0 - - - - - - -
28/01:00pm 14.6 NW 17 22 1001.8 - 0.0 - - - - - - -
28/12:30pm 12.9 N 10 15 1002.4 - 0.0 - - - - - - -
28/12:00pm 12.2 N 10 15 1003.1 - 0.0 - - - - - - -
28/11:30am 12.7 N 9 12 1003.6 - 0.0 - - - - - - -
28/11:00am 13.2 N 9 17 1003.9 - 0.0 - - - - - - -
28/10:30am 13.0 N 9 14 1004.2 - 0.0 - - - - - - -
28/10:00am 12.9 NNW 10 15 1004.4 - 0.0 - - - - - - -
28/09:30am 12.5 NW 15 19 1004.4 - 0.0 - - - - - - -
28/09:00am 12.2 NW 11 15 1004.5 - 0.6 - - - - - - -
28/08:30am 12.1 NNW 10 16 1004.3 - 0.6 - - - - - - -
28/08:00am 11.9 NW 16 23 1004.4 - 0.6 - - - - - - -
28/07:30am 11.2 N 10 17 1004.3 - 0.6 - - - - - - -
28/07:00am 10.9 N 9 13 1004.7 - 0.6 - - - - - - -
28/06:30am 10.8 N 11 13 1004.7 - 0.6 - - - - - - -
28/06:00am 10.6 N 11 16 1004.9 - 0.6 - - - - - - -
28/05:30am 10.3 N 10 11 1004.8 - 0.6 - - - - - - -
28/05:00am 10.4 NW 4 7 1005.1 - 0.6 - - - - - - -
28/04:30am 11.0 N 9 12 1004.8 - 0.4 - - - - - - -
28/04:00am 11.1 N 8 11 1005.1 - 0.4 - - - - - - -
28/03:30am 12.3 N 9 16 1005.1 - 0.0 - - - - - - -
28/03:00am 12.6 N 7 11 1005.7 - 0.0 - - - - - - -
28/02:30am 13.2 NNW 11 19 1006.0 - 0.0 - - - - - - -
28/02:00am 13.3 NNW 15 21 1006.3 - 0.0 - - - - - - -
28/01:30am 12.3 NNW 13 19 1006.6 - 0.0 - - - - - - -
28/01:00am 12.3 NNW 8 14 1006.9 - 0.0 - - - - - - -
28/12:30am 13.1 NNW 13 20 1007.3 - 0.0 - - - - - - -
28/12:00am 12.7 NW 12 19 1008.0 - 0.0 - - - - - - -
 
Date/Time
EST
Temp

°C
Wind Pressure Rain
since 9am
mm
Weather Cloud Vis
km
Sea
Height
m
Swell
Dir
 
Speed
knots
Gust
knots
hPa Trend Height
m
Period
s
Dir
27/11:30pm 12.2 NNW 11 14 1008.3 - 0.0 - - - - - - -
27/11:00pm 12.3 N 8 15 1008.7 - 0.0 - - - - - - -
27/10:30pm 12.4 NW 12 16 1009.2 - 0.0 - - - - - - -
27/10:00pm 11.7 N 6 8 1010.0 - 0.0 - - - - - - -
27/09:30pm 11.5 NNE 7 9 1009.8 - 0.0 - - - - - - -
27/09:00pm 11.7 N 7 10 1010.2 - 0.0 - - - - - - -
27/08:30pm 11.3 N 6 10 1010.3 - 0.0 - - - - - - -
27/08:00pm 11.5 N 7 11 1010.4 - 0.0 - - - - - - -
27/07:30pm 11.7 N 5 9 1010.8 - 0.0 - - - - - - -
27/07:00pm 11.6 N 8 11 1011.1 - 0.0 - - - - - - -
27/06:30pm 11.6 N 7 10 1011.3 - 0.0 - - - - - - -
27/06:00pm 11.5 N 7 10 1011.6 - 0.0 - - - - - - -
27/05:30pm 12.4 N 8 12 1011.7 - 0.0 - - - - - - -
27/05:00pm 12.0 N 9 13 1011.8 - 0.0 - - - - - - -
27/04:30pm 12.2 N 7 12 1011.7 - 0.0 - - - - - - -
27/04:00pm 12.7 N 7 10 1012.1 - 0.0 - - - - - - -
27/03:30pm 12.4 N 7 10 1012.1 - 0.0 - - - - - - -
27/03:00pm 12.5 NNW 9 14 1012.5 - 0.0 - - - - - - -
27/02:30pm 12.3 NNW 10 15 1012.4 - 0.0 - - - - - - -
27/02:00pm 12.4 N 10 15 1012.4 - 0.0 - - - - - - -
27/01:30pm 12.8 N 10 15 1013.0 - 0.0 - - - - - - -
27/01:00pm 12.3 N 10 14 1013.6 - 0.0 - - - - - - -
27/12:30pm 11.8 NNE 8 11 1014.4 - 0.0 - - - - - - -
27/12:00pm 11.5 N 11 14 1015.7 - 0.0 - - - - - - -
27/11:30am 11.1 N 10 16 1016.1 - 0.0 - - - - - - -
27/11:00am 10.1 N 9 13 1016.8 - 0.0 - - - - - - -
27/10:30am 9.7 N 9 13 1016.8 - 0.0 - - - - - - -
27/10:00am 8.4 NNE 12 16 1017.4 - 0.0 - - - - - - -
27/09:30am 8.8 N 11 16 1017.8 - 0.0 - - - - - - -
27/09:00am 7.9 N 13 17 1018.5 - 0.4 - - - - - - -
27/08:30am 7.4 N 13 16 1018.5 - 0.4 - - - - - - -
27/08:00am 7.3 N 14 17 1018.6 - 0.4 - - - - - - -
27/07:30am 7.2 N 14 17 1018.3 - 0.4 - - - - - - -
27/07:00am 6.9 N 11 15 1018.6 - 0.4 - - - - - - -
27/06:30am 7.1 N 13 17 1018.4 - 0.4 - - - - - - -
27/06:00am 7.3 N 13 16 1018.5 - 0.4 Rain - - - - - -
27/05:30am 6.7 N 11 14 1018.1 - 0.2 - - - - - - -
27/05:00am 7.0 N 12 16 1018.6 - 0.2 - - - - - - -
27/04:30am 7.2 N 12 16 1018.8 - 0.2 - - - - - - -
27/04:00am 7.3 N 14 19 1019.2 - 0.2 - - - - - - -
27/03:30am 7.5 N 13 16 1019.2 - 0.2 - - - - - - -
27/03:00am 7.7 N 12 16 1019.6 - 0.2 Recent precip. - - - - - -
27/02:30am 7.5 N 10 14 1019.6 - 0.2 - - - - - - -
27/02:00am 7.8 N 12 14 1019.7 - 0.0 - - - - - - -
27/01:30am 8.0 N 11 13 1020.2 - 0.0 - - - - - - -
27/01:00am 8.2 N 10 13 1020.2 - 0.0 - - - - - - -
27/12:30am 8.5 N 11 13 1020.4 - 0.0 - - - - - - -
27/12:00am 8.6 N 11 13 1020.8 - 0.0 - - - - - - -
 
Date/Time
EST
Temp

°C
Wind Pressure Rain
since 9am
mm
Weather Cloud Vis
km
Sea
Height
m
Swell
Dir
 
Speed
knots
Gust
knots
hPa Trend Height
m
Period
s
Dir
26/11:30pm 8.7 N 10 12 1020.6 - 0.0 - - - - - - -
26/11:00pm 8.8 N 4 6 1021.2 - 0.0 - - - - - - -
26/10:30pm 9.3 NNE 2 4 1021.3 - 0.0 - - - - - - -
26/10:00pm 10.1 WSW 1 4 1021.3 - 0.0 - - - - - - -
26/09:30pm 10.5 W 4 6 1021.4 - 0.0 - - - - - - -
26/09:00pm 10.5 W 2 6 1021.3 - 0.0 - - - - - - -
26/08:30pm 10.2 WNW 5 6 1020.8 - 0.0 - - - - - - -
26/08:00pm 10.3 WNW 5 7 1020.6 - 0.0 - - - - - - -
26/07:30pm 10.2 WNW 7 9 1020.5 - 0.0 - - - - - - -
26/07:00pm 9.9 WNW 5 5 1020.4 - 0.0 - - - - - - -
26/06:30pm 9.3 WNW 4 6 1020.2 - 0.0 - - - - - - -
26/06:00pm 9.9 NW 3 5 1020.3 - 0.0 - - - - - - -
26/05:30pm 9.9 CALM 0 0 1019.9 - 0.0 - - - - - - -
26/05:00pm 11.3 SSE 3 4 1019.9 - 0.0 - - - - - - -
26/04:30pm 12.2 CALM 0 0 1019.7 - 0.0 - - - - - - -
26/04:00pm 12.6 ESE 3 4 1019.4 - 0.0 - - - - - - -
26/03:30pm 12.6 E 4 5 1019.3 - 0.0 - - - - - - -
26/03:00pm 13.4 SSE 4 6 1019.5 - 0.0 - - - - - - -
26/02:30pm 13.6 S 3 5 1019.3 - 0.0 - - - - - - -
26/02:00pm 14.2 W 5 6 1019.2 - 0.0 - - - - - - -
26/01:30pm 14.4 SSW 4 6 1019.3 - 0.0 - - - - - - -
26/01:00pm 13.9 NE 3 5 1019.6 - 0.0 - - - - - - -
26/12:30pm 13.6 NNE 5 7 1019.7 - 0.0 - - - - - - -
26/12:00pm 13.6 N 5 6 1020.1 - 0.0 - - - - - - -
26/11:30am 12.2 N 8 10 1020.4 - 0.0 - - - - - - -
26/11:00am 10.5 N 10 12 1020.6 - 0.0 - - - - - - -
26/10:30am 10.1 N 9 11 1020.6 - 0.0 - - - - - - -
26/10:00am 9.0 N 10 13 1020.4 - 0.0 - - - - - - -
26/09:30am 8.1 N 12 14 1020.4 - 0.0 - - - - - - -
26/09:00am 7.9 N 10 12 1020.5 - 0.2 - - - - - - -
26/08:30am 7.2 N 11 14 1020.1 - 0.2 - - - - - - -
26/08:00am 7.2 N 12 14 1020.0 - 0.2 - - - - - - -
26/07:30am 7.1 N 12 14 1019.7 - 0.2 - - - - - - -
26/07:00am 7.5 N 10 13 1019.6 - 0.2 - - - - - - -
26/06:30am 7.7 N 10 13 1019.0 - 0.2 - - - - - - -
26/06:00am 7.9 N 12 14 1019.2 - 0.2 Recent precip. - - - - - -
26/05:30am 7.6 NNE 6 9 1018.9 - 0.0 - - - - - - -
26/05:00am 7.7 N 8 10 1018.9 - 0.0 - - - - - - -
26/04:30am 8.1 N 9 12 1018.8 - 0.0 - - - - - - -
26/04:00am 8.0 N 7 10 1018.8 - 0.0 - - - - - - -
26/03:30am 8.2 N 8 10 1018.4 - 0.0 - - - - - - -
26/03:00am 8.4 NE 5 8 1018.6 - 0.0 - - - - - - -
26/02:30am 8.7 N 9 12 1018.3 - 0.0 - - - - - - -
26/02:00am 8.8 N 10 12 1018.6 - 0.0 - - - - - - -
26/01:30am 8.8 N 10 13 1018.2 - 0.0 - - - - - - -
26/01:00am 9.1 N 9 13 1018.3 - 0.0 - - - - - - -
26/12:30am 9.4 N 11 14 1018.2 - 0.0 - - - - - - -

Other Formats:

Comma delimited format used in spreadsheet applications
http://www.bom.gov.au/fwo/IDT60701/IDT60701.95967.axf

JavaScript Object Notation format (JSON) in row-major order
http://www.bom.gov.au/fwo/IDT60701/IDT60701.95967.json